sensor_id;sensor_type;location;lat;lon;timestamp;P1;durP1;ratioP1;P2;durP2;ratioP2
28174;SDS011;59417;44.788;10.334;2023-04-16T00:02:17;6.20;;;3.55;;
28174;SDS011;59417;44.788;10.334;2023-04-16T00:04:43;6.55;;;3.55;;
28174;SDS011;59417;44.788;10.334;2023-04-16T00:07:09;5.90;;;3.25;;
28174;SDS011;59417;44.788;10.334;2023-04-16T00:09:35;10.35;;;3.83;;
28174;SDS011;59417;44.788;10.334;2023-04-16T00:12:00;7.07;;;3.70;;
28174;SDS011;59417;44.788;10.334;2023-04-16T00:14:26;6.05;;;3.08;;
28174;SDS011;59417;44.788;10.334;2023-04-16T00:16:53;11.27;;;3.95;;
28174;SDS011;59417;44.788;10.334;2023-04-16T00:19:19;6.65;;;3.50;;
28174;SDS011;59417;44.788;10.334;2023-04-16T00:21:45;9.77;;;4.30;;
28174;SDS011;59417;44.788;10.334;2023-04-16T00:24:10;6.75;;;3.80;;
28174;SDS011;59417;44.788;10.334;2023-04-16T00:26:36;8.20;;;3.78;;
28174;SDS011;59417;44.788;10.334;2023-04-16T00:29:01;7.20;;;3.88;;
28174;SDS011;59417;44.788;10.334;2023-04-16T00:31:28;7.18;;;3.50;;
28174;SDS011;59417;44.788;10.334;2023-04-16T00:33:57;6.97;;;3.92;;
28174;SDS011;59417;44.788;10.334;2023-04-16T00:36:23;10.50;;;4.18;;
28174;SDS011;59417;44.788;10.334;2023-04-16T00:38:51;8.02;;;3.67;;
28174;SDS011;59417;44.788;10.334;2023-04-16T00:41:17;9.05;;;3.85;;
28174;SDS011;59417;44.788;10.334;2023-04-16T00:43:43;12.80;;;4.22;;
28174;SDS011;59417;44.788;10.334;2023-04-16T00:46:09;8.48;;;3.60;;
28174;SDS011;59417;44.788;10.334;2023-04-16T00:48:37;6.18;;;4.05;;
28174;SDS011;59417;44.788;10.334;2023-04-16T00:51:04;5.25;;;3.83;;
28174;SDS011;59417;44.788;10.334;2023-04-16T00:53:31;6.32;;;3.90;;
28174;SDS011;59417;44.788;10.334;2023-04-16T00:55:58;8.35;;;4.40;;
28174;SDS011;59417;44.788;10.334;2023-04-16T00:58:25;5.15;;;4.50;;
28174;SDS011;59417;44.788;10.334;2023-04-16T01:00:51;7.13;;;4.80;;
28174;SDS011;59417;44.788;10.334;2023-04-16T01:03:16;6.78;;;4.72;;
28174;SDS011;59417;44.788;10.334;2023-04-16T01:05:42;8.90;;;5.28;;
28174;SDS011;59417;44.788;10.334;2023-04-16T01:08:16;7.05;;;5.20;;
28174;SDS011;59417;44.788;10.334;2023-04-16T01:10:43;7.45;;;4.78;;
28174;SDS011;59417;44.788;10.334;2023-04-16T01:13:09;7.30;;;4.53;;
28174;SDS011;59417;44.788;10.334;2023-04-16T01:15:35;8.75;;;4.93;;
28174;SDS011;59417;44.788;10.334;2023-04-16T01:18:01;10.98;;;4.93;;
28174;SDS011;59417;44.788;10.334;2023-04-16T01:20:28;7.28;;;4.70;;
28174;SDS011;59417;44.788;10.334;2023-04-16T01:22:54;7.95;;;4.78;;
28174;SDS011;59417;44.788;10.334;2023-04-16T01:25:19;7.75;;;4.88;;
28174;SDS011;59417;44.788;10.334;2023-04-16T01:27:48;7.15;;;4.15;;
28174;SDS011;59417;44.788;10.334;2023-04-16T01:30:14;11.25;;;4.70;;
28174;SDS011;59417;44.788;10.334;2023-04-16T01:32:54;6.88;;;4.07;;
28174;SDS011;59417;44.788;10.334;2023-04-16T01:35:20;5.90;;;4.00;;
28174;SDS011;59417;44.788;10.334;2023-04-16T01:37:46;10.40;;;4.63;;
28174;SDS011;59417;44.788;10.334;2023-04-16T01:40:11;7.60;;;4.13;;
28174;SDS011;59417;44.788;10.334;2023-04-16T01:42:37;6.20;;;3.97;;
28174;SDS011;59417;44.788;10.334;2023-04-16T01:45:03;8.73;;;4.63;;
28174;SDS011;59417;44.788;10.334;2023-04-16T01:47:29;7.32;;;4.22;;
28174;SDS011;59417;44.788;10.334;2023-04-16T01:49:55;7.05;;;4.70;;
28174;SDS011;59417;44.788;10.334;2023-04-16T01:52:21;10.43;;;4.43;;
28174;SDS011;59417;44.788;10.334;2023-04-16T01:54:47;10.40;;;4.20;;
28174;SDS011;59417;44.788;10.334;2023-04-16T01:57:13;9.57;;;4.15;;
28174;SDS011;59417;44.788;10.334;2023-04-16T01:59:38;6.22;;;4.18;;
28174;SDS011;59417;44.788;10.334;2023-04-16T02:02:06;9.13;;;4.75;;
28174;SDS011;59417;44.788;10.334;2023-04-16T02:04:37;8.27;;;4.28;;
28174;SDS011;59417;44.788;10.334;2023-04-16T02:07:05;5.50;;;4.03;;
28174;SDS011;59417;44.788;10.334;2023-04-16T02:09:33;5.65;;;3.90;;
28174;SDS011;59417;44.788;10.334;2023-04-16T02:11:59;8.50;;;4.32;;
28174;SDS011;59417;44.788;10.334;2023-04-16T02:14:31;5.68;;;3.78;;
28174;SDS011;59417;44.788;10.334;2023-04-16T02:16:57;7.68;;;4.05;;
28174;SDS011;59417;44.788;10.334;2023-04-16T02:19:43;6.95;;;4.28;;
28174;SDS011;59417;44.788;10.334;2023-04-16T02:22:09;9.80;;;4.43;;
28174;SDS011;59417;44.788;10.334;2023-04-16T02:24:35;5.32;;;4.03;;
28174;SDS011;59417;44.788;10.334;2023-04-16T02:27:05;8.30;;;4.95;;
28174;SDS011;59417;44.788;10.334;2023-04-16T02:29:30;8.50;;;4.68;;
28174;SDS011;59417;44.788;10.334;2023-04-16T02:32:04;6.63;;;4.43;;
28174;SDS011;59417;44.788;10.334;2023-04-16T02:34:31;6.20;;;4.30;;
28174;SDS011;59417;44.788;10.334;2023-04-16T02:36:58;6.00;;;4.22;;
28174;SDS011;59417;44.788;10.334;2023-04-16T02:39:25;8.70;;;5.13;;
28174;SDS011;59417;44.788;10.334;2023-04-16T02:41:52;8.15;;;4.45;;
28174;SDS011;59417;44.788;10.334;2023-04-16T02:44:19;9.35;;;4.82;;
28174;SDS011;59417;44.788;10.334;2023-04-16T02:46:46;7.75;;;4.53;;
28174;SDS011;59417;44.788;10.334;2023-04-16T02:49:12;6.70;;;3.80;;
28174;SDS011;59417;44.788;10.334;2023-04-16T02:51:37;6.13;;;4.68;;
28174;SDS011;59417;44.788;10.334;2023-04-16T02:54:03;6.32;;;3.90;;
28174;SDS011;59417;44.788;10.334;2023-04-16T02:56:30;5.85;;;4.20;;
28174;SDS011;59417;44.788;10.334;2023-04-16T02:58:56;5.80;;;3.92;;
28174;SDS011;59417;44.788;10.334;2023-04-16T03:01:22;6.85;;;4.60;;
28174;SDS011;59417;44.788;10.334;2023-04-16T03:03:47;11.18;;;4.97;;
28174;SDS011;59417;44.788;10.334;2023-04-16T03:06:13;8.57;;;4.18;;
28174;SDS011;59417;44.788;10.334;2023-04-16T03:08:39;6.25;;;4.78;;
28174;SDS011;59417;44.788;10.334;2023-04-16T03:11:05;10.52;;;4.40;;
28174;SDS011;59417;44.788;10.334;2023-04-16T03:13:31;6.05;;;4.22;;
28174;SDS011;59417;44.788;10.334;2023-04-16T03:15:57;6.30;;;4.32;;
28174;SDS011;59417;44.788;10.334;2023-04-16T03:18:22;6.13;;;4.07;;
28174;SDS011;59417;44.788;10.334;2023-04-16T03:20:52;9.07;;;4.05;;
28174;SDS011;59417;44.788;10.334;2023-04-16T03:23:18;4.83;;;3.23;;
28174;SDS011;59417;44.788;10.334;2023-04-16T03:25:44;5.03;;;3.70;;
28174;SDS011;59417;44.788;10.334;2023-04-16T03:28:14;8.43;;;4.35;;
28174;SDS011;59417;44.788;10.334;2023-04-16T03:30:41;6.53;;;3.67;;
28174;SDS011;59417;44.788;10.334;2023-04-16T03:33:07;5.40;;;3.92;;
28174;SDS011;59417;44.788;10.334;2023-04-16T03:35:33;6.82;;;3.92;;
28174;SDS011;59417;44.788;10.334;2023-04-16T03:38:00;7.40;;;4.07;;
28174;SDS011;59417;44.788;10.334;2023-04-16T03:40:26;6.85;;;4.30;;
28174;SDS011;59417;44.788;10.334;2023-04-16T03:42:52;8.93;;;7.03;;
28174;SDS011;59417;44.788;10.334;2023-04-16T03:45:18;13.40;;;8.15;;
28174;SDS011;59417;44.788;10.334;2023-04-16T03:47:45;5.70;;;3.65;;
28174;SDS011;59417;44.788;10.334;2023-04-16T03:50:20;6.72;;;4.78;;
28174;SDS011;59417;44.788;10.334;2023-04-16T03:52:46;6.65;;;4.75;;
28174;SDS011;59417;44.788;10.334;2023-04-16T03:55:14;5.57;;;3.72;;
28174;SDS011;59417;44.788;10.334;2023-04-16T03:57:40;8.20;;;4.00;;
28174;SDS011;59417;44.788;10.334;2023-04-16T04:00:10;7.30;;;4.20;;
28174;SDS011;59417;44.788;10.334;2023-04-16T04:02:54;6.60;;;3.80;;
28174;SDS011;59417;44.788;10.334;2023-04-16T04:05:21;12.15;;;3.70;;
28174;SDS011;59417;44.788;10.334;2023-04-16T04:07:48;4.97;;;3.70;;
28174;SDS011;59417;44.788;10.334;2023-04-16T04:10:14;5.93;;;3.47;;
28174;SDS011;59417;44.788;10.334;2023-04-16T04:12:41;5.35;;;3.38;;
28174;SDS011;59417;44.788;10.334;2023-04-16T04:15:07;6.95;;;3.50;;
28174;SDS011;59417;44.788;10.334;2023-04-16T04:17:33;6.90;;;3.25;;
28174;SDS011;59417;44.788;10.334;2023-04-16T04:19:59;4.30;;;3.28;;
28174;SDS011;59417;44.788;10.334;2023-04-16T04:22:25;5.20;;;3.60;;
28174;SDS011;59417;44.788;10.334;2023-04-16T04:24:51;7.07;;;4.00;;
28174;SDS011;59417;44.788;10.334;2023-04-16T04:27:17;7.47;;;4.80;;
28174;SDS011;59417;44.788;10.334;2023-04-16T04:29:42;6.88;;;3.95;;
28174;SDS011;59417;44.788;10.334;2023-04-16T04:32:09;8.73;;;3.83;;
28174;SDS011;59417;44.788;10.334;2023-04-16T04:34:35;9.70;;;4.05;;
28174;SDS011;59417;44.788;10.334;2023-04-16T04:37:01;7.78;;;3.50;;
28174;SDS011;59417;44.788;10.334;2023-04-16T04:39:27;7.63;;;3.70;;
28174;SDS011;59417;44.788;10.334;2023-04-16T04:41:53;5.70;;;3.20;;
28174;SDS011;59417;44.788;10.334;2023-04-16T04:44:19;8.70;;;3.78;;
28174;SDS011;59417;44.788;10.334;2023-04-16T04:46:44;7.90;;;3.67;;
28174;SDS011;59417;44.788;10.334;2023-04-16T04:49:10;6.95;;;3.88;;
28174;SDS011;59417;44.788;10.334;2023-04-16T04:51:36;6.25;;;3.47;;
28174;SDS011;59417;44.788;10.334;2023-04-16T04:54:03;8.38;;;3.83;;
28174;SDS011;59417;44.788;10.334;2023-04-16T04:56:28;6.35;;;3.97;;
28174;SDS011;59417;44.788;10.334;2023-04-16T04:58:54;7.13;;;3.67;;
28174;SDS011;59417;44.788;10.334;2023-04-16T05:01:20;4.63;;;3.55;;
28174;SDS011;59417;44.788;10.334;2023-04-16T05:03:46;6.68;;;3.30;;
28174;SDS011;59417;44.788;10.334;2023-04-16T05:06:12;5.30;;;3.28;;
28174;SDS011;59417;44.788;10.334;2023-04-16T05:08:37;6.60;;;3.83;;
28174;SDS011;59417;44.788;10.334;2023-04-16T05:11:03;5.15;;;3.72;;
28174;SDS011;59417;44.788;10.334;2023-04-16T05:13:29;6.00;;;3.85;;
28174;SDS011;59417;44.788;10.334;2023-04-16T05:15:54;6.25;;;4.10;;
28174;SDS011;59417;44.788;10.334;2023-04-16T05:18:20;7.88;;;3.63;;
28174;SDS011;59417;44.788;10.334;2023-04-16T05:20:45;6.25;;;3.65;;
28174;SDS011;59417;44.788;10.334;2023-04-16T05:23:11;7.10;;;2.97;;
28174;SDS011;59417;44.788;10.334;2023-04-16T05:25:40;8.52;;;3.58;;
28174;SDS011;59417;44.788;10.334;2023-04-16T05:28:05;9.02;;;3.08;;
28174;SDS011;59417;44.788;10.334;2023-04-16T05:30:31;7.43;;;3.97;;
28174;SDS011;59417;44.788;10.334;2023-04-16T05:32:56;6.53;;;3.25;;
28174;SDS011;59417;44.788;10.334;2023-04-16T05:35:22;6.30;;;3.30;;
28174;SDS011;59417;44.788;10.334;2023-04-16T05:37:47;5.30;;;3.08;;
28174;SDS011;59417;44.788;10.334;2023-04-16T05:40:13;6.55;;;3.05;;
28174;SDS011;59417;44.788;10.334;2023-04-16T05:42:39;8.82;;;3.40;;
28174;SDS011;59417;44.788;10.334;2023-04-16T05:45:05;4.63;;;2.72;;
28174;SDS011;59417;44.788;10.334;2023-04-16T05:47:31;9.50;;;3.20;;
28174;SDS011;59417;44.788;10.334;2023-04-16T05:49:57;7.78;;;3.30;;
28174;SDS011;59417;44.788;10.334;2023-04-16T05:52:22;8.73;;;3.63;;
28174;SDS011;59417;44.788;10.334;2023-04-16T05:54:48;10.10;;;3.22;;
28174;SDS011;59417;44.788;10.334;2023-04-16T05:57:14;8.85;;;3.60;;
28174;SDS011;59417;44.788;10.334;2023-04-16T05:59:39;9.35;;;3.38;;
28174;SDS011;59417;44.788;10.334;2023-04-16T06:02:05;7.80;;;3.67;;
28174;SDS011;59417;44.788;10.334;2023-04-16T06:04:31;8.73;;;3.85;;
28174;SDS011;59417;44.788;10.334;2023-04-16T06:06:57;6.68;;;3.58;;
28174;SDS011;59417;44.788;10.334;2023-04-16T06:09:23;5.78;;;3.53;;
28174;SDS011;59417;44.788;10.334;2023-04-16T06:11:49;8.18;;;3.08;;
28174;SDS011;59417;44.788;10.334;2023-04-16T06:14:14;5.22;;;3.08;;
28174;SDS011;59417;44.788;10.334;2023-04-16T06:16:40;10.77;;;3.50;;
28174;SDS011;59417;44.788;10.334;2023-04-16T06:19:05;11.00;;;4.40;;
28174;SDS011;59417;44.788;10.334;2023-04-16T06:21:31;5.95;;;3.42;;
28174;SDS011;59417;44.788;10.334;2023-04-16T06:23:57;9.75;;;3.83;;
28174;SDS011;59417;44.788;10.334;2023-04-16T06:26:23;7.70;;;4.03;;
28174;SDS011;59417;44.788;10.334;2023-04-16T06:28:48;7.93;;;4.28;;
28174;SDS011;59417;44.788;10.334;2023-04-16T06:31:17;8.30;;;3.95;;
28174;SDS011;59417;44.788;10.334;2023-04-16T06:33:42;13.35;;;4.00;;
28174;SDS011;59417;44.788;10.334;2023-04-16T06:36:08;6.05;;;3.20;;
28174;SDS011;59417;44.788;10.334;2023-04-16T06:38:35;10.13;;;3.53;;
28174;SDS011;59417;44.788;10.334;2023-04-16T06:41:01;11.30;;;4.15;;
28174;SDS011;59417;44.788;10.334;2023-04-16T06:43:27;9.90;;;3.83;;
28174;SDS011;59417;44.788;10.334;2023-04-16T06:45:54;10.10;;;3.72;;
28174;SDS011;59417;44.788;10.334;2023-04-16T06:48:19;12.93;;;3.92;;
28174;SDS011;59417;44.788;10.334;2023-04-16T06:50:45;9.27;;;3.53;;
28174;SDS011;59417;44.788;10.334;2023-04-16T06:53:11;7.82;;;3.78;;
28174;SDS011;59417;44.788;10.334;2023-04-16T06:55:36;10.80;;;4.32;;
28174;SDS011;59417;44.788;10.334;2023-04-16T06:58:02;6.70;;;3.63;;
28174;SDS011;59417;44.788;10.334;2023-04-16T07:00:28;10.65;;;3.55;;
28174;SDS011;59417;44.788;10.334;2023-04-16T07:02:53;10.27;;;3.35;;
28174;SDS011;59417;44.788;10.334;2023-04-16T07:05:19;14.65;;;4.07;;
28174;SDS011;59417;44.788;10.334;2023-04-16T07:07:45;7.93;;;4.70;;
28174;SDS011;59417;44.788;10.334;2023-04-16T07:10:10;5.78;;;4.13;;
28174;SDS011;59417;44.788;10.334;2023-04-16T07:12:36;7.72;;;4.03;;
28174;SDS011;59417;44.788;10.334;2023-04-16T07:15:02;10.13;;;5.68;;
28174;SDS011;59417;44.788;10.334;2023-04-16T07:17:29;12.25;;;5.78;;
28174;SDS011;59417;44.788;10.334;2023-04-16T07:19:55;9.00;;;5.45;;
28174;SDS011;59417;44.788;10.334;2023-04-16T07:22:21;9.98;;;4.97;;
28174;SDS011;59417;44.788;10.334;2023-04-16T07:24:47;9.98;;;4.30;;
28174;SDS011;59417;44.788;10.334;2023-04-16T07:27:12;7.68;;;4.47;;
28174;SDS011;59417;44.788;10.334;2023-04-16T07:29:38;9.23;;;4.80;;
28174;SDS011;59417;44.788;10.334;2023-04-16T07:32:04;11.60;;;5.03;;
28174;SDS011;59417;44.788;10.334;2023-04-16T07:34:30;8.02;;;3.92;;
28174;SDS011;59417;44.788;10.334;2023-04-16T07:36:55;10.70;;;4.72;;
28174;SDS011;59417;44.788;10.334;2023-04-16T07:39:21;8.48;;;4.90;;
28174;SDS011;59417;44.788;10.334;2023-04-16T07:41:47;10.50;;;4.60;;
28174;SDS011;59417;44.788;10.334;2023-04-16T07:44:13;11.27;;;4.57;;
28174;SDS011;59417;44.788;10.334;2023-04-16T07:46:38;9.52;;;3.72;;
28174;SDS011;59417;44.788;10.334;2023-04-16T07:49:04;7.13;;;3.85;;
28174;SDS011;59417;44.788;10.334;2023-04-16T07:51:29;6.40;;;3.67;;
28174;SDS011;59417;44.788;10.334;2023-04-16T07:53:55;7.68;;;3.72;;
28174;SDS011;59417;44.788;10.334;2023-04-16T07:56:21;10.82;;;4.38;;
28174;SDS011;59417;44.788;10.334;2023-04-16T07:58:46;7.95;;;4.63;;
28174;SDS011;59417;44.788;10.334;2023-04-16T08:01:12;8.27;;;4.25;;
28174;SDS011;59417;44.788;10.334;2023-04-16T08:03:38;12.60;;;4.00;;
28174;SDS011;59417;44.788;10.334;2023-04-16T08:06:03;8.23;;;3.95;;
28174;SDS011;59417;44.788;10.334;2023-04-16T08:08:29;10.73;;;4.30;;
28174;SDS011;59417;44.788;10.334;2023-04-16T08:10:55;8.38;;;3.97;;
28174;SDS011;59417;44.788;10.334;2023-04-16T08:13:22;8.50;;;3.08;;
28174;SDS011;59417;44.788;10.334;2023-04-16T08:15:48;5.65;;;3.85;;
28174;SDS011;59417;44.788;10.334;2023-04-16T08:18:14;7.38;;;3.38;;
28174;SDS011;59417;44.788;10.334;2023-04-16T08:20:40;6.97;;;3.33;;
28174;SDS011;59417;44.788;10.334;2023-04-16T08:23:06;11.57;;;3.95;;
28174;SDS011;59417;44.788;10.334;2023-04-16T08:25:32;10.43;;;3.60;;
28174;SDS011;59417;44.788;10.334;2023-04-16T08:27:57;10.38;;;3.85;;
28174;SDS011;59417;44.788;10.334;2023-04-16T08:30:23;14.05;;;3.60;;
28174;SDS011;59417;44.788;10.334;2023-04-16T08:32:49;9.48;;;3.72;;
28174;SDS011;59417;44.788;10.334;2023-04-16T08:35:15;9.48;;;4.10;;
28174;SDS011;59417;44.788;10.334;2023-04-16T08:37:40;9.38;;;4.32;;
28174;SDS011;59417;44.788;10.334;2023-04-16T08:40:06;10.32;;;4.32;;
28174;SDS011;59417;44.788;10.334;2023-04-16T08:42:33;8.00;;;4.00;;
28174;SDS011;59417;44.788;10.334;2023-04-16T08:45:12;7.82;;;3.17;;
28174;SDS011;59417;44.788;10.334;2023-04-16T08:47:45;11.75;;;3.22;;
28174;SDS011;59417;44.788;10.334;2023-04-16T08:50:16;7.60;;;2.92;;
28174;SDS011;59417;44.788;10.334;2023-04-16T08:52:51;7.10;;;2.83;;
28174;SDS011;59417;44.788;10.334;2023-04-16T08:55:21;5.55;;;2.88;;
28174;SDS011;59417;44.788;10.334;2023-04-16T09:00:21;9.13;;;3.20;;
28174;SDS011;59417;44.788;10.334;2023-04-16T09:02:48;9.82;;;3.38;;
28174;SDS011;59417;44.788;10.334;2023-04-16T09:05:15;11.45;;;5.07;;
28174;SDS011;59417;44.788;10.334;2023-04-16T09:07:43;6.18;;;3.45;;
28174;SDS011;59417;44.788;10.334;2023-04-16T09:10:11;6.63;;;2.92;;
28174;SDS011;59417;44.788;10.334;2023-04-16T09:12:38;6.70;;;3.42;;
28174;SDS011;59417;44.788;10.334;2023-04-16T09:15:05;9.00;;;4.03;;
28174;SDS011;59417;44.788;10.334;2023-04-16T09:17:33;17.80;;;5.47;;
28174;SDS011;59417;44.788;10.334;2023-04-16T09:19:59;11.25;;;3.33;;
28174;SDS011;59417;44.788;10.334;2023-04-16T09:22:25;14.27;;;4.47;;
28174;SDS011;59417;44.788;10.334;2023-04-16T09:24:51;7.47;;;3.47;;
28174;SDS011;59417;44.788;10.334;2023-04-16T09:27:16;7.93;;;3.45;;
28174;SDS011;59417;44.788;10.334;2023-04-16T09:29:42;6.35;;;3.40;;
28174;SDS011;59417;44.788;10.334;2023-04-16T09:32:08;7.03;;;3.45;;
28174;SDS011;59417;44.788;10.334;2023-04-16T09:37:27;4.55;;;3.03;;
28174;SDS011;59417;44.788;10.334;2023-04-16T09:39:57;6.20;;;3.28;;
28174;SDS011;59417;44.788;10.334;2023-04-16T09:42:25;7.82;;;2.92;;
28174;SDS011;59417;44.788;10.334;2023-04-16T09:44:56;10.20;;;3.53;;
28174;SDS011;59417;44.788;10.334;2023-04-16T09:47:23;7.05;;;2.60;;
28174;SDS011;59417;44.788;10.334;2023-04-16T09:49:50;2.55;;;2.25;;
28174;SDS011;59417;44.788;10.334;2023-04-16T09:52:16;7.50;;;3.00;;
28174;SDS011;59417;44.788;10.334;2023-04-16T09:57:13;4.85;;;1.85;;
28174;SDS011;59417;44.788;10.334;2023-04-16T09:59:40;3.67;;;2.10;;
28174;SDS011;59417;44.788;10.334;2023-04-16T10:02:06;6.25;;;2.25;;
28174;SDS011;59417;44.788;10.334;2023-04-16T10:04:45;3.38;;;2.28;;
28174;SDS011;59417;44.788;10.334;2023-04-16T10:07:15;6.72;;;2.22;;
28174;SDS011;59417;44.788;10.334;2023-04-16T10:09:41;5.60;;;2.30;;
28174;SDS011;59417;44.788;10.334;2023-04-16T10:12:07;3.40;;;1.98;;
28174;SDS011;59417;44.788;10.334;2023-04-16T10:14:33;2.97;;;1.92;;
28174;SDS011;59417;44.788;10.334;2023-04-16T10:16:59;4.30;;;2.20;;
28174;SDS011;59417;44.788;10.334;2023-04-16T10:19:28;6.63;;;2.42;;
28174;SDS011;59417;44.788;10.334;2023-04-16T10:21:56;6.88;;;2.90;;
28174;SDS011;59417;44.788;10.334;2023-04-16T10:24:22;4.38;;;2.40;;
28174;SDS011;59417;44.788;10.334;2023-04-16T10:26:50;4.13;;;2.17;;
28174;SDS011;59417;44.788;10.334;2023-04-16T10:29:17;8.05;;;2.00;;
28174;SDS011;59417;44.788;10.334;2023-04-16T10:31:45;3.40;;;2.38;;
28174;SDS011;59417;44.788;10.334;2023-04-16T10:34:13;8.43;;;1.85;;
28174;SDS011;59417;44.788;10.334;2023-04-16T10:36:40;3.70;;;2.20;;
28174;SDS011;59417;44.788;10.334;2023-04-16T10:39:09;4.85;;;2.17;;
28174;SDS011;59417;44.788;10.334;2023-04-16T10:41:36;4.63;;;1.98;;
28174;SDS011;59417;44.788;10.334;2023-04-16T10:44:06;4.70;;;1.75;;
28174;SDS011;59417;44.788;10.334;2023-04-16T10:46:40;3.63;;;1.80;;
28174;SDS011;59417;44.788;10.334;2023-04-16T10:49:17;4.13;;;1.83;;
28174;SDS011;59417;44.788;10.334;2023-04-16T10:54:25;7.60;;;2.30;;
28174;SDS011;59417;44.788;10.334;2023-04-16T10:56:52;4.18;;;1.80;;
28174;SDS011;59417;44.788;10.334;2023-04-16T10:59:21;3.33;;;2.00;;
28174;SDS011;59417;44.788;10.334;2023-04-16T11:01:49;2.90;;;2.00;;
28174;SDS011;59417;44.788;10.334;2023-04-16T11:10:02;5.60;;;1.73;;
28174;SDS011;59417;44.788;10.334;2023-04-16T11:12:36;4.00;;;2.28;;
28174;SDS011;59417;44.788;10.334;2023-04-16T11:15:06;4.78;;;2.17;;
28174;SDS011;59417;44.788;10.334;2023-04-16T11:20:05;6.45;;;2.25;;
28174;SDS011;59417;44.788;10.334;2023-04-16T11:22:36;3.65;;;2.13;;
28174;SDS011;59417;44.788;10.334;2023-04-16T11:25:03;2.97;;;2.00;;
28174;SDS011;59417;44.788;10.334;2023-04-16T11:27:29;4.05;;;1.90;;
28174;SDS011;59417;44.788;10.334;2023-04-16T11:29:59;2.75;;;1.55;;
28174;SDS011;59417;44.788;10.334;2023-04-16T11:32:26;6.10;;;2.20;;
28174;SDS011;59417;44.788;10.334;2023-04-16T11:34:55;3.70;;;1.70;;
28174;SDS011;59417;44.788;10.334;2023-04-16T11:37:30;3.35;;;1.67;;
28174;SDS011;59417;44.788;10.334;2023-04-16T11:39:59;2.38;;;1.90;;
28174;SDS011;59417;44.788;10.334;2023-04-16T11:42:25;3.42;;;1.73;;
28174;SDS011;59417;44.788;10.334;2023-04-16T11:44:56;3.67;;;1.50;;
28174;SDS011;59417;44.788;10.334;2023-04-16T11:47:25;4.82;;;1.92;;
28174;SDS011;59417;44.788;10.334;2023-04-16T11:49:51;3.88;;;1.67;;
28174;SDS011;59417;44.788;10.334;2023-04-16T11:52:27;3.92;;;2.03;;
28174;SDS011;59417;44.788;10.334;2023-04-16T11:54:55;8.82;;;2.20;;
28174;SDS011;59417;44.788;10.334;2023-04-16T11:57:25;2.10;;;1.50;;
28174;SDS011;59417;44.788;10.334;2023-04-16T11:59:55;4.60;;;1.60;;
28174;SDS011;59417;44.788;10.334;2023-04-16T12:02:35;2.50;;;1.58;;
28174;SDS011;59417;44.788;10.334;2023-04-16T12:05:04;3.75;;;1.55;;
28174;SDS011;59417;44.788;10.334;2023-04-16T12:07:42;3.08;;;1.58;;
28174;SDS011;59417;44.788;10.334;2023-04-16T12:10:09;2.15;;;1.38;;
28174;SDS011;59417;44.788;10.334;2023-04-16T12:12:34;3.22;;;1.60;;
28174;SDS011;59417;44.788;10.334;2023-04-16T12:15:01;2.72;;;1.48;;
28174;SDS011;59417;44.788;10.334;2023-04-16T12:17:28;3.45;;;1.80;;
28174;SDS011;59417;44.788;10.334;2023-04-16T12:19:58;3.13;;;1.55;;
28174;SDS011;59417;44.788;10.334;2023-04-16T12:25:00;1.35;;;1.13;;
28174;SDS011;59417;44.788;10.334;2023-04-16T12:27:47;3.42;;;1.67;;
28174;SDS011;59417;44.788;10.334;2023-04-16T12:30:17;3.63;;;1.30;;
28174;SDS011;59417;44.788;10.334;2023-04-16T12:32:48;1.30;;;1.15;;
28174;SDS011;59417;44.788;10.334;2023-04-16T12:35:33;3.28;;;1.20;;
28174;SDS011;59417;44.788;10.334;2023-04-16T12:37:59;1.48;;;0.93;;
28174;SDS011;59417;44.788;10.334;2023-04-16T12:40:25;1.92;;;1.30;;
28174;SDS011;59417;44.788;10.334;2023-04-16T12:42:51;2.30;;;1.15;;
28174;SDS011;59417;44.788;10.334;2023-04-16T12:45:16;1.75;;;1.38;;
28174;SDS011;59417;44.788;10.334;2023-04-16T12:47:42;2.92;;;1.48;;
28174;SDS011;59417;44.788;10.334;2023-04-16T12:50:08;3.53;;;1.40;;
28174;SDS011;59417;44.788;10.334;2023-04-16T12:52:34;3.20;;;1.08;;
28174;SDS011;59417;44.788;10.334;2023-04-16T12:55:00;1.70;;;0.77;;
28174;SDS011;59417;44.788;10.334;2023-04-16T12:57:27;3.00;;;1.20;;
28174;SDS011;59417;44.788;10.334;2023-04-16T12:59:56;1.52;;;1.20;;
28174;SDS011;59417;44.788;10.334;2023-04-16T13:02:23;1.83;;;0.80;;
28174;SDS011;59417;44.788;10.334;2023-04-16T13:04:50;1.33;;;1.10;;
28174;SDS011;59417;44.788;10.334;2023-04-16T13:07:16;0.90;;;0.85;;
28174;SDS011;59417;44.788;10.334;2023-04-16T13:09:42;2.63;;;1.30;;
28174;SDS011;59417;44.788;10.334;2023-04-16T13:12:09;0.98;;;0.70;;
28174;SDS011;59417;44.788;10.334;2023-04-16T13:14:34;3.97;;;1.33;;
28174;SDS011;59417;44.788;10.334;2023-04-16T13:17:01;1.30;;;1.20;;
28174;SDS011;59417;44.788;10.334;2023-04-16T13:19:28;1.00;;;0.88;;
28174;SDS011;59417;44.788;10.334;2023-04-16T13:21:55;1.10;;;0.93;;
28174;SDS011;59417;44.788;10.334;2023-04-16T13:24:20;1.05;;;0.82;;
28174;SDS011;59417;44.788;10.334;2023-04-16T13:26:48;1.10;;;0.80;;
28174;SDS011;59417;44.788;10.334;2023-04-16T13:29:14;1.55;;;0.88;;
28174;SDS011;59417;44.788;10.334;2023-04-16T13:31:40;0.85;;;0.80;;
28174;SDS011;59417;44.788;10.334;2023-04-16T13:34:06;1.38;;;0.80;;
28174;SDS011;59417;44.788;10.334;2023-04-16T13:36:31;1.08;;;0.73;;
28174;SDS011;59417;44.788;10.334;2023-04-16T13:38:58;0.70;;;0.70;;
28174;SDS011;59417;44.788;10.334;2023-04-16T13:41:24;1.15;;;0.73;;
28174;SDS011;59417;44.788;10.334;2023-04-16T13:43:50;2.33;;;0.98;;
28174;SDS011;59417;44.788;10.334;2023-04-16T13:46:16;1.42;;;0.93;;
28174;SDS011;59417;44.788;10.334;2023-04-16T13:48:43;0.75;;;0.70;;
28174;SDS011;59417;44.788;10.334;2023-04-16T13:51:09;2.33;;;1.00;;
28174;SDS011;59417;44.788;10.334;2023-04-16T13:53:34;3.13;;;1.00;;
28174;SDS011;59417;44.788;10.334;2023-04-16T13:56:00;1.40;;;0.75;;
28174;SDS011;59417;44.788;10.334;2023-04-16T13:58:28;1.15;;;0.70;;
28174;SDS011;59417;44.788;10.334;2023-04-16T14:00:53;1.35;;;0.93;;
28174;SDS011;59417;44.788;10.334;2023-04-16T14:03:19;1.55;;;1.00;;
28174;SDS011;59417;44.788;10.334;2023-04-16T14:05:45;1.27;;;1.10;;
28174;SDS011;59417;44.788;10.334;2023-04-16T14:08:11;6.25;;;0.90;;
28174;SDS011;59417;44.788;10.334;2023-04-16T14:10:39;1.45;;;0.80;;
28174;SDS011;59417;44.788;10.334;2023-04-16T14:13:04;2.70;;;0.98;;
28174;SDS011;59417;44.788;10.334;2023-04-16T14:15:30;1.45;;;1.08;;
28174;SDS011;59417;44.788;10.334;2023-04-16T14:17:56;1.75;;;0.90;;
28174;SDS011;59417;44.788;10.334;2023-04-16T14:20:21;1.38;;;1.00;;
28174;SDS011;59417;44.788;10.334;2023-04-16T14:22:47;5.78;;;1.70;;
28174;SDS011;59417;44.788;10.334;2023-04-16T14:25:13;2.13;;;1.10;;
28174;SDS011;59417;44.788;10.334;2023-04-16T14:27:38;1.88;;;0.80;;
28174;SDS011;59417;44.788;10.334;2023-04-16T14:30:05;3.03;;;1.02;;
28174;SDS011;59417;44.788;10.334;2023-04-16T14:32:31;1.30;;;0.93;;
28174;SDS011;59417;44.788;10.334;2023-04-16T14:34:57;1.65;;;1.00;;
28174;SDS011;59417;44.788;10.334;2023-04-16T14:37:23;2.03;;;1.10;;
28174;SDS011;59417;44.788;10.334;2023-04-16T14:39:49;1.42;;;0.95;;
28174;SDS011;59417;44.788;10.334;2023-04-16T14:42:14;1.23;;;1.00;;
28174;SDS011;59417;44.788;10.334;2023-04-16T14:44:41;2.05;;;1.30;;
28174;SDS011;59417;44.788;10.334;2023-04-16T14:47:07;2.03;;;0.95;;
28174;SDS011;59417;44.788;10.334;2023-04-16T14:49:32;1.48;;;1.30;;
28174;SDS011;59417;44.788;10.334;2023-04-16T14:51:59;2.63;;;1.17;;
28174;SDS011;59417;44.788;10.334;2023-04-16T14:54:26;2.13;;;1.00;;